createdAt,value
2017-08-20T00:05:09.482Z,100349.59
2017-08-20T00:15:32.126Z,100335.84
2017-08-20T00:20:39.261Z,100339.46
2017-08-20T00:31:01.055Z,100346.75
2017-08-20T00:46:40.452Z,100359.25
2017-08-20T00:57:02.278Z,100353.81
2017-08-20T01:07:24.150Z,100354.92
2017-08-20T01:17:46.776Z,100358.92
2017-08-20T01:28:10.998Z,100366.92
2017-08-20T01:38:33.774Z,100366.58
2017-08-20T01:48:56.385Z,100372.59
2017-08-20T01:59:19.168Z,100366.41
2017-08-20T02:04:25.070Z,100370.58
2017-08-20T02:14:47.023Z,100374.80
2017-08-20T02:25:09.126Z,100387.75
2017-08-20T02:30:14.911Z,100389.41
2017-08-20T02:40:38.098Z,100386.80
2017-08-20T02:51:00.787Z,100388.53
2017-08-20T03:01:22.669Z,100392.81
2017-08-20T03:11:44.970Z,100396.05
2017-08-20T03:22:06.728Z,100395.47
2017-08-20T03:32:28.607Z,100403.52
2017-08-20T03:48:06.742Z,100402.41
2017-08-20T03:58:30.182Z,100406.28
2017-08-20T04:08:52.227Z,100415.31
2017-08-20T04:19:15.196Z,100408.83
2017-08-20T04:29:38.006Z,100424.59
2017-08-20T04:45:16.701Z,100412.46
2017-08-20T04:55:39.276Z,100437.02
2017-08-20T05:06:00.998Z,100454.70
2017-08-20T05:16:24.769Z,100457.17
2017-08-20T05:21:30.652Z,100453.55
2017-08-20T05:37:09.450Z,100459.58
2017-08-20T05:47:31.316Z,100471.67
2017-08-20T05:57:53.883Z,100471.73
2017-08-20T06:08:15.880Z,100475.23
2017-08-20T06:18:39.383Z,100486.68
2017-08-20T06:29:01.417Z,100496.92
2017-08-20T06:44:40.187Z,100506.47
2017-08-20T06:55:06.091Z,100522.64
2017-08-20T07:05:28.049Z,100517.41
2017-08-20T07:15:51.395Z,100523.52
2017-08-20T07:26:14.896Z,100524.86
2017-08-20T07:36:36.805Z,100530.22
2017-08-20T07:47:00.102Z,100537.20
2017-08-20T07:57:22.605Z,100554.08
2017-08-20T08:07:45.172Z,100549.86
2017-08-20T08:18:10.933Z,100549.86
2017-08-20T08:28:34.517Z,100555.45
2017-08-20T08:33:40.329Z,100562.65
2017-08-20T08:49:19.091Z,100560.25
2017-08-20T08:59:41.986Z,100562.66
2017-08-20T09:10:04.598Z,100575.63
2017-08-20T09:20:26.258Z,100575.68
2017-08-20T09:30:48.424Z,100579.06
2017-08-20T09:47:38.919Z,100584.20
2017-08-20T09:58:01.559Z,100577.75
2017-08-20T10:08:24.186Z,100586.80
2017-08-20T10:18:46.597Z,100580.39
2017-08-20T10:29:08.419Z,100584.27
2017-08-20T10:44:46.219Z,100577.84
2017-08-20T10:55:08.061Z,100581.39
2017-08-20T11:05:28.829Z,100583.16
2017-08-20T11:15:52.557Z,100565.14
2017-08-20T11:26:13.147Z,100570.87
2017-08-20T11:36:35.767Z,100580.99
2017-08-20T11:46:59.042Z,100585.39
2017-08-20T11:57:21.634Z,100576.16
2017-08-20T12:07:42.361Z,100588.65
2017-08-20T12:18:05.084Z,100584.45
2017-08-20T12:28:28.029Z,100584.41
2017-08-20T12:38:51.387Z,100591.14
2017-08-20T12:49:13.957Z,100581.52
2017-08-20T12:59:36.723Z,100588.11
2017-08-20T13:09:57.741Z,100597.52
2017-08-20T13:20:20.310Z,100591.52
2017-08-20T13:30:43.194Z,100592.17
2017-08-20T13:41:05.983Z,100590.80
2017-08-20T13:51:27.936Z,100586.84
2017-08-20T14:01:49.848Z,100600.82
2017-08-20T14:12:11.743Z,100580.94
2017-08-20T14:22:33.501Z,100567.66
2017-08-20T14:32:55.525Z,100570.14
2017-08-20T14:48:34.893Z,100568.20
2017-08-20T14:58:58.567Z,100598.61
2017-08-20T15:09:20.427Z,100590.78
2017-08-20T15:19:43.066Z,100597.59
2017-08-20T15:30:05.085Z,100609.84
2017-08-20T15:45:43.185Z,100599.61
2017-08-20T15:56:06.605Z,100596.22
2017-08-20T16:06:41.298Z,100604.00
2017-08-20T16:17:03.287Z,100585.36
2017-08-20T16:27:25.275Z,100595.16
2017-08-20T16:37:47.204Z,100592.33
2017-08-20T16:48:09.119Z,100596.87
2017-08-20T16:58:31.735Z,100608.98
2017-08-20T17:08:53.587Z,100651.28
2017-08-20T17:19:20.244Z,100663.03
2017-08-20T17:29:43.029Z,100674.91
2017-08-20T17:45:22.130Z,100648.20
2017-08-20T17:55:45.595Z,100632.89
2017-08-20T18:06:09.548Z,100636.49
2017-08-20T18:16:32.424Z,100644.80
2017-08-20T18:26:54.213Z,100649.98
2017-08-20T18:37:18.463Z,100662.13
2017-08-20T18:47:42.340Z,100672.96
2017-08-20T18:58:04.656Z,100679.89
2017-08-20T19:08:27.514Z,100696.58
2017-08-20T19:18:50.042Z,100698.58
2017-08-20T19:29:12.860Z,100702.97
2017-08-20T19:44:53.816Z,100713.95
2017-08-20T19:55:17.914Z,100729.81
2017-08-20T20:05:39.787Z,100737.41
2017-08-20T20:16:02.453Z,100745.69
2017-08-20T20:26:24.512Z,100747.81
2017-08-20T20:36:47.170Z,100748.16
2017-08-20T20:47:09.959Z,100749.09
2017-08-20T20:57:32.699Z,100757.12
2017-08-20T21:07:53.758Z,100753.45
2017-08-20T21:18:16.471Z,100747.34
2017-08-20T21:28:39.080Z,100742.37
2017-08-20T21:33:44.901Z,100746.43
2017-08-20T21:49:26.129Z,100753.39
2017-08-20T21:59:49.079Z,100756.70
2017-08-20T22:10:10.900Z,100740.93
2017-08-20T22:20:33.772Z,100740.93
2017-08-20T22:30:55.687Z,100742.70
2017-08-20T22:46:35.392Z,100741.98
2017-08-20T22:51:41.212Z,100738.48
2017-08-20T23:02:03.091Z,100735.00
2017-08-20T23:12:25.127Z,100726.75
2017-08-20T23:22:46.261Z,100719.91
2017-08-20T23:33:09.058Z,100718.80
2017-08-20T23:48:47.847Z,100716.52
2017-08-20T23:59:11.340Z,100707.80
